sensor_id;sensor_type;location;lat;lon;timestamp;temperature;humidity
32139;DHT22;18644;48.700;9.210;2023-08-08T00:01:14;16.30;54.60
32139;DHT22;18644;48.700;9.210;2023-08-08T00:03:41;16.30;54.70
32139;DHT22;18644;48.700;9.210;2023-08-08T00:06:09;16.20;54.60
32139;DHT22;18644;48.700;9.210;2023-08-08T00:08:36;16.20;54.70
32139;DHT22;18644;48.700;9.210;2023-08-08T00:11:03;16.20;54.70
32139;DHT22;18644;48.700;9.210;2023-08-08T00:13:31;16.10;54.80
32139;DHT22;18644;48.700;9.210;2023-08-08T00:15:58;16.10;54.90
32139;DHT22;18644;48.700;9.210;2023-08-08T00:18:25;16.10;55.00
32139;DHT22;18644;48.700;9.210;2023-08-08T00:20:51;16.10;55.10
32139;DHT22;18644;48.700;9.210;2023-08-08T00:23:18;16.10;55.20
32139;DHT22;18644;48.700;9.210;2023-08-08T00:25:45;16.10;55.40
32139;DHT22;18644;48.700;9.210;2023-08-08T00:28:15;16.10;55.50
32139;DHT22;18644;48.700;9.210;2023-08-08T00:30:43;16.10;55.60
32139;DHT22;18644;48.700;9.210;2023-08-08T00:33:10;16.10;55.70
32139;DHT22;18644;48.700;9.210;2023-08-08T00:35:37;16.10;55.70
32139;DHT22;18644;48.700;9.210;2023-08-08T00:38:04;16.10;55.80
32139;DHT22;18644;48.700;9.210;2023-08-08T00:40:31;16.10;55.90
32139;DHT22;18644;48.700;9.210;2023-08-08T00:42:57;16.10;55.90
32139;DHT22;18644;48.700;9.210;2023-08-08T00:45:24;16.10;56.00
32139;DHT22;18644;48.700;9.210;2023-08-08T00:47:53;16.20;56.20
32139;DHT22;18644;48.700;9.210;2023-08-08T00:50:20;16.20;56.40
32139;DHT22;18644;48.700;9.210;2023-08-08T00:52:48;16.20;56.30
32139;DHT22;18644;48.700;9.210;2023-08-08T00:55:15;16.20;56.30
32139;DHT22;18644;48.700;9.210;2023-08-08T00:57:42;16.20;56.20
32139;DHT22;18644;48.700;9.210;2023-08-08T01:00:09;16.30;56.30
32139;DHT22;18644;48.700;9.210;2023-08-08T01:02:37;16.20;56.30
32139;DHT22;18644;48.700;9.210;2023-08-08T01:05:07;16.20;56.40
32139;DHT22;18644;48.700;9.210;2023-08-08T01:07:38;16.30;56.50
32139;DHT22;18644;48.700;9.210;2023-08-08T01:10:10;16.30;56.50
32139;DHT22;18644;48.700;9.210;2023-08-08T01:12:42;16.30;56.50
32139;DHT22;18644;48.700;9.210;2023-08-08T01:15:11;16.30;56.50
32139;DHT22;18644;48.700;9.210;2023-08-08T01:17:40;16.30;56.50
32139;DHT22;18644;48.700;9.210;2023-08-08T01:20:11;16.30;56.50
32139;DHT22;18644;48.700;9.210;2023-08-08T01:22:48;16.30;56.60
32139;DHT22;18644;48.700;9.210;2023-08-08T01:25:20;16.30;56.60
32139;DHT22;18644;48.700;9.210;2023-08-08T01:27:47;16.30;56.60
32139;DHT22;18644;48.700;9.210;2023-08-08T01:30:14;16.30;56.60
32139;DHT22;18644;48.700;9.210;2023-08-08T01:32:42;16.30;56.70
32139;DHT22;18644;48.700;9.210;2023-08-08T01:35:09;16.30;56.70
32139;DHT22;18644;48.700;9.210;2023-08-08T01:37:39;16.30;56.80
32139;DHT22;18644;48.700;9.210;2023-08-08T01:40:10;16.30;56.80
32139;DHT22;18644;48.700;9.210;2023-08-08T01:42:42;16.30;56.80
32139;DHT22;18644;48.700;9.210;2023-08-08T01:45:10;16.30;56.90
32139;DHT22;18644;48.700;9.210;2023-08-08T01:47:38;16.40;56.90
32139;DHT22;18644;48.700;9.210;2023-08-08T01:50:06;16.30;57.50
32139;DHT22;18644;48.700;9.210;2023-08-08T01:52:34;16.30;56.90
32139;DHT22;18644;48.700;9.210;2023-08-08T01:55:01;16.30;57.00
32139;DHT22;18644;48.700;9.210;2023-08-08T01:57:29;16.40;57.00
32139;DHT22;18644;48.700;9.210;2023-08-08T01:59:57;16.40;57.00
32139;DHT22;18644;48.700;9.210;2023-08-08T02:02:24;16.40;57.10
32139;DHT22;18644;48.700;9.210;2023-08-08T02:04:51;16.40;57.00
32139;DHT22;18644;48.700;9.210;2023-08-08T02:07:18;16.40;57.10
32139;DHT22;18644;48.700;9.210;2023-08-08T02:09:45;16.40;57.10
32139;DHT22;18644;48.700;9.210;2023-08-08T02:12:12;16.40;57.10
32139;DHT22;18644;48.700;9.210;2023-08-08T02:14:38;16.40;57.10
32139;DHT22;18644;48.700;9.210;2023-08-08T02:17:07;16.40;57.20
32139;DHT22;18644;48.700;9.210;2023-08-08T02:19:34;16.40;57.20
32139;DHT22;18644;48.700;9.210;2023-08-08T02:22:01;16.40;57.20
32139;DHT22;18644;48.700;9.210;2023-08-08T02:24:28;16.40;57.20
32139;DHT22;18644;48.700;9.210;2023-08-08T02:26:55;16.40;57.20
32139;DHT22;18644;48.700;9.210;2023-08-08T02:29:22;16.40;57.20
32139;DHT22;18644;48.700;9.210;2023-08-08T02:31:49;16.40;57.20
32139;DHT22;18644;48.700;9.210;2023-08-08T02:34:17;16.30;57.10
32139;DHT22;18644;48.700;9.210;2023-08-08T02:36:44;16.30;57.20
32139;DHT22;18644;48.700;9.210;2023-08-08T02:39:11;16.30;57.20
32139;DHT22;18644;48.700;9.210;2023-08-08T02:41:38;16.30;57.20
32139;DHT22;18644;48.700;9.210;2023-08-08T02:44:06;16.30;57.20
32139;DHT22;18644;48.700;9.210;2023-08-08T02:46:33;16.30;57.30
32139;DHT22;18644;48.700;9.210;2023-08-08T02:49:00;16.20;57.20
32139;DHT22;18644;48.700;9.210;2023-08-08T02:51:28;16.20;57.20
32139;DHT22;18644;48.700;9.210;2023-08-08T02:53:55;16.20;57.30
32139;DHT22;18644;48.700;9.210;2023-08-08T02:56:22;16.10;57.20
32139;DHT22;18644;48.700;9.210;2023-08-08T02:58:49;16.10;57.30
32139;DHT22;18644;48.700;9.210;2023-08-08T03:01:17;16.10;57.40
32139;DHT22;18644;48.700;9.210;2023-08-08T03:03:44;16.10;57.50
32139;DHT22;18644;48.700;9.210;2023-08-08T03:06:11;16.10;57.60
32139;DHT22;18644;48.700;9.210;2023-08-08T03:08:40;16.10;57.70
32139;DHT22;18644;48.700;9.210;2023-08-08T03:11:06;16.10;57.70
32139;DHT22;18644;48.700;9.210;2023-08-08T03:13:33;16.10;57.70
32139;DHT22;18644;48.700;9.210;2023-08-08T03:16:02;16.10;57.70
32139;DHT22;18644;48.700;9.210;2023-08-08T03:18:30;16.10;57.70
32139;DHT22;18644;48.700;9.210;2023-08-08T03:20:56;16.10;57.70
32139;DHT22;18644;48.700;9.210;2023-08-08T03:23:23;16.10;57.70
32139;DHT22;18644;48.700;9.210;2023-08-08T03:25:52;16.10;57.70
32139;DHT22;18644;48.700;9.210;2023-08-08T03:28:19;16.10;57.70
32139;DHT22;18644;48.700;9.210;2023-08-08T03:30:45;16.10;57.70
32139;DHT22;18644;48.700;9.210;2023-08-08T03:33:12;16.00;57.60
32139;DHT22;18644;48.700;9.210;2023-08-08T03:35:39;16.00;57.70
32139;DHT22;18644;48.700;9.210;2023-08-08T03:38:06;16.00;57.70
32139;DHT22;18644;48.700;9.210;2023-08-08T03:40:33;16.00;57.70
32139;DHT22;18644;48.700;9.210;2023-08-08T03:43:01;16.00;57.80
32139;DHT22;18644;48.700;9.210;2023-08-08T03:45:28;16.00;57.90
32139;DHT22;18644;48.700;9.210;2023-08-08T03:47:55;16.00;58.00
32139;DHT22;18644;48.700;9.210;2023-08-08T03:50:22;15.90;58.00
32139;DHT22;18644;48.700;9.210;2023-08-08T03:52:49;15.90;58.10
32139;DHT22;18644;48.700;9.210;2023-08-08T03:55:16;15.90;58.20
32139;DHT22;18644;48.700;9.210;2023-08-08T03:57:43;16.00;58.30
32139;DHT22;18644;48.700;9.210;2023-08-08T04:00:12;16.00;58.40
32139;DHT22;18644;48.700;9.210;2023-08-08T04:02:39;16.00;58.50
32139;DHT22;18644;48.700;9.210;2023-08-08T04:05:07;16.00;58.40
32139;DHT22;18644;48.700;9.210;2023-08-08T04:07:34;16.00;58.50
32139;DHT22;18644;48.700;9.210;2023-08-08T04:10:01;16.10;59.20
32139;DHT22;18644;48.700;9.210;2023-08-08T04:12:28;16.10;58.60
32139;DHT22;18644;48.700;9.210;2023-08-08T04:14:55;16.10;58.70
32139;DHT22;18644;48.700;9.210;2023-08-08T04:17:23;16.10;58.70
32139;DHT22;18644;48.700;9.210;2023-08-08T04:19:50;16.10;58.60
32139;DHT22;18644;48.700;9.210;2023-08-08T04:22:17;16.20;58.70
32139;DHT22;18644;48.700;9.210;2023-08-08T04:24:44;16.20;58.70
32139;DHT22;18644;48.700;9.210;2023-08-08T04:27:10;16.20;58.80
32139;DHT22;18644;48.700;9.210;2023-08-08T04:29:38;16.20;58.80
32139;DHT22;18644;48.700;9.210;2023-08-08T04:32:05;16.20;58.80
32139;DHT22;18644;48.700;9.210;2023-08-08T04:34:34;16.30;58.70
32139;DHT22;18644;48.700;9.210;2023-08-08T04:37:01;16.30;58.70
32139;DHT22;18644;48.700;9.210;2023-08-08T04:39:27;16.30;58.70
32139;DHT22;18644;48.700;9.210;2023-08-08T04:41:54;16.30;58.60
32139;DHT22;18644;48.700;9.210;2023-08-08T04:44:21;16.30;58.60
32139;DHT22;18644;48.700;9.210;2023-08-08T04:46:48;16.30;58.60
32139;DHT22;18644;48.700;9.210;2023-08-08T04:49:15;16.30;58.60
32139;DHT22;18644;48.700;9.210;2023-08-08T04:51:43;16.30;58.60
32139;DHT22;18644;48.700;9.210;2023-08-08T04:54:10;16.30;58.60
32139;DHT22;18644;48.700;9.210;2023-08-08T04:56:37;16.30;58.60
32139;DHT22;18644;48.700;9.210;2023-08-08T04:59:04;16.30;58.50
32139;DHT22;18644;48.700;9.210;2023-08-08T05:01:30;16.30;58.50
32139;DHT22;18644;48.700;9.210;2023-08-08T05:03:57;16.30;58.50
32139;DHT22;18644;48.700;9.210;2023-08-08T05:06:24;16.30;58.50
32139;DHT22;18644;48.700;9.210;2023-08-08T05:08:52;16.30;58.50
32139;DHT22;18644;48.700;9.210;2023-08-08T05:11:19;16.30;58.60
32139;DHT22;18644;48.700;9.210;2023-08-08T05:13:46;16.30;58.70
32139;DHT22;18644;48.700;9.210;2023-08-08T05:16:13;16.30;58.80
32139;DHT22;18644;48.700;9.210;2023-08-08T05:18:40;16.30;58.80
32139;DHT22;18644;48.700;9.210;2023-08-08T05:21:09;16.40;59.00
32139;DHT22;18644;48.700;9.210;2023-08-08T05:23:36;16.40;59.00
32139;DHT22;18644;48.700;9.210;2023-08-08T05:26:04;16.40;59.00
32139;DHT22;18644;48.700;9.210;2023-08-08T05:28:31;16.50;59.10
32139;DHT22;18644;48.700;9.210;2023-08-08T05:30:58;16.50;58.90
32139;DHT22;18644;48.700;9.210;2023-08-08T05:33:26;16.50;58.80
32139;DHT22;18644;48.700;9.210;2023-08-08T05:35:53;16.60;58.80
32139;DHT22;18644;48.700;9.210;2023-08-08T05:38:20;16.60;58.70
32139;DHT22;18644;48.700;9.210;2023-08-08T05:40:47;16.60;58.60
32139;DHT22;18644;48.700;9.210;2023-08-08T05:43:15;16.60;58.50
32139;DHT22;18644;48.700;9.210;2023-08-08T05:45:43;16.60;58.50
32139;DHT22;18644;48.700;9.210;2023-08-08T05:48:10;16.60;58.50
32139;DHT22;18644;48.700;9.210;2023-08-08T05:50:38;16.60;58.50
32139;DHT22;18644;48.700;9.210;2023-08-08T05:53:05;16.70;58.70
32139;DHT22;18644;48.700;9.210;2023-08-08T05:55:32;16.70;58.70
32139;DHT22;18644;48.700;9.210;2023-08-08T05:57:59;16.70;58.70
32139;DHT22;18644;48.700;9.210;2023-08-08T06:00:28;16.80;58.80
32139;DHT22;18644;48.700;9.210;2023-08-08T06:02:55;16.80;58.70
32139;DHT22;18644;48.700;9.210;2023-08-08T06:05:22;16.90;58.80
32139;DHT22;18644;48.700;9.210;2023-08-08T06:07:50;17.00;58.90
32139;DHT22;18644;48.700;9.210;2023-08-08T06:10:17;17.00;58.90
32139;DHT22;18644;48.700;9.210;2023-08-08T06:12:44;17.10;58.90
32139;DHT22;18644;48.700;9.210;2023-08-08T06:15:10;17.10;58.80
32139;DHT22;18644;48.700;9.210;2023-08-08T06:17:39;17.20;58.80
32139;DHT22;18644;48.700;9.210;2023-08-08T06:20:07;17.30;58.80
32139;DHT22;18644;48.700;9.210;2023-08-08T06:22:34;17.30;58.80
32139;DHT22;18644;48.700;9.210;2023-08-08T06:25:01;17.40;58.80
32139;DHT22;18644;48.700;9.210;2023-08-08T06:27:28;17.50;58.80
32139;DHT22;18644;48.700;9.210;2023-08-08T06:29:55;17.60;58.90
32139;DHT22;18644;48.700;9.210;2023-08-08T06:32:22;17.60;58.90
32139;DHT22;18644;48.700;9.210;2023-08-08T06:34:51;17.80;58.90
32139;DHT22;18644;48.700;9.210;2023-08-08T06:37:18;17.80;58.70
32139;DHT22;18644;48.700;9.210;2023-08-08T06:39:45;17.90;58.70
32139;DHT22;18644;48.700;9.210;2023-08-08T06:42:11;18.00;58.60
32139;DHT22;18644;48.700;9.210;2023-08-08T06:44:41;18.10;58.50
32139;DHT22;18644;48.700;9.210;2023-08-08T06:47:09;18.20;58.50
32139;DHT22;18644;48.700;9.210;2023-08-08T06:49:36;18.30;58.40
32139;DHT22;18644;48.700;9.210;2023-08-08T06:52:05;18.40;58.30
32139;DHT22;18644;48.700;9.210;2023-08-08T06:54:33;18.40;58.10
32139;DHT22;18644;48.700;9.210;2023-08-08T06:57:00;18.50;58.20
32139;DHT22;18644;48.700;9.210;2023-08-08T06:59:27;18.60;58.10
32139;DHT22;18644;48.700;9.210;2023-08-08T07:01:54;18.80;58.20
32139;DHT22;18644;48.700;9.210;2023-08-08T07:04:22;18.90;58.00
32139;DHT22;18644;48.700;9.210;2023-08-08T07:06:49;19.00;58.00
32139;DHT22;18644;48.700;9.210;2023-08-08T07:09:17;19.10;57.90
32139;DHT22;18644;48.700;9.210;2023-08-08T07:11:47;19.30;57.90
32139;DHT22;18644;48.700;9.210;2023-08-08T07:14:13;19.40;57.80
32139;DHT22;18644;48.700;9.210;2023-08-08T07:16:40;19.60;57.60
32139;DHT22;18644;48.700;9.210;2023-08-08T07:19:07;19.70;57.50
32139;DHT22;18644;48.700;9.210;2023-08-08T07:21:34;19.80;57.40
32139;DHT22;18644;48.700;9.210;2023-08-08T07:24:02;19.90;57.10
32139;DHT22;18644;48.700;9.210;2023-08-08T07:26:30;20.00;56.90
32139;DHT22;18644;48.700;9.210;2023-08-08T07:28:57;20.20;56.80
32139;DHT22;18644;48.700;9.210;2023-08-08T07:31:24;20.30;56.40
32139;DHT22;18644;48.700;9.210;2023-08-08T07:33:51;20.40;56.20
32139;DHT22;18644;48.700;9.210;2023-08-08T07:36:18;20.50;55.90
32139;DHT22;18644;48.700;9.210;2023-08-08T07:38:45;20.60;55.70
32139;DHT22;18644;48.700;9.210;2023-08-08T07:41:12;20.70;55.60
32139;DHT22;18644;48.700;9.210;2023-08-08T07:43:40;20.80;55.60
32139;DHT22;18644;48.700;9.210;2023-08-08T07:46:07;20.90;55.70
32139;DHT22;18644;48.700;9.210;2023-08-08T07:48:34;21.00;55.50
32139;DHT22;18644;48.700;9.210;2023-08-08T07:51:01;21.10;55.50
32139;DHT22;18644;48.700;9.210;2023-08-08T07:53:28;21.20;55.50
32139;DHT22;18644;48.700;9.210;2023-08-08T07:55:55;21.40;55.50
32139;DHT22;18644;48.700;9.210;2023-08-08T07:58:22;21.50;55.20
32139;DHT22;18644;48.700;9.210;2023-08-08T08:00:52;21.70;55.00
32139;DHT22;18644;48.700;9.210;2023-08-08T08:03:19;21.80;54.70
32139;DHT22;18644;48.700;9.210;2023-08-08T08:05:46;22.00;54.80
32139;DHT22;18644;48.700;9.210;2023-08-08T08:08:13;22.10;54.60
32139;DHT22;18644;48.700;9.210;2023-08-08T08:10:40;22.30;54.30
32139;DHT22;18644;48.700;9.210;2023-08-08T08:13:07;22.40;54.00
32139;DHT22;18644;48.700;9.210;2023-08-08T08:15:34;22.50;53.40
32139;DHT22;18644;48.700;9.210;2023-08-08T08:18:02;22.60;52.80
32139;DHT22;18644;48.700;9.210;2023-08-08T08:20:30;22.60;52.70
32139;DHT22;18644;48.700;9.210;2023-08-08T08:22:57;22.70;52.50
32139;DHT22;18644;48.700;9.210;2023-08-08T08:25:24;22.80;52.10
32139;DHT22;18644;48.700;9.210;2023-08-08T08:27:51;22.80;51.60
32139;DHT22;18644;48.700;9.210;2023-08-08T08:30:17;22.90;51.40
32139;DHT22;18644;48.700;9.210;2023-08-08T08:32:45;22.90;51.20
32139;DHT22;18644;48.700;9.210;2023-08-08T08:35:13;23.00;51.10
32139;DHT22;18644;48.700;9.210;2023-08-08T08:37:42;23.00;50.70
32139;DHT22;18644;48.700;9.210;2023-08-08T08:40:09;23.10;50.60
32139;DHT22;18644;48.700;9.210;2023-08-08T08:42:38;23.10;50.20
32139;DHT22;18644;48.700;9.210;2023-08-08T08:45:06;23.20;50.20
32139;DHT22;18644;48.700;9.210;2023-08-08T08:47:36;23.20;50.40
32139;DHT22;18644;48.700;9.210;2023-08-08T08:50:05;23.30;50.30
32139;DHT22;18644;48.700;9.210;2023-08-08T08:52:34;23.30;50.30
32139;DHT22;18644;48.700;9.210;2023-08-08T08:55:01;23.40;50.50
32139;DHT22;18644;48.700;9.210;2023-08-08T08:57:29;23.60;50.40
32139;DHT22;18644;48.700;9.210;2023-08-08T08:59:58;23.70;50.30
32139;DHT22;18644;48.700;9.210;2023-08-08T09:02:25;23.80;49.90
32139;DHT22;18644;48.700;9.210;2023-08-08T09:04:52;23.90;49.40
32139;DHT22;18644;48.700;9.210;2023-08-08T09:07:20;23.90;48.70
32139;DHT22;18644;48.700;9.210;2023-08-08T09:09:52;24.00;48.40
32139;DHT22;18644;48.700;9.210;2023-08-08T09:12:19;24.00;48.20
32139;DHT22;18644;48.700;9.210;2023-08-08T09:14:47;24.00;48.20
32139;DHT22;18644;48.700;9.210;2023-08-08T09:17:16;24.00;48.20
32139;DHT22;18644;48.700;9.210;2023-08-08T09:19:43;24.00;48.10
32139;DHT22;18644;48.700;9.210;2023-08-08T09:22:10;24.10;48.30
32139;DHT22;18644;48.700;9.210;2023-08-08T09:24:39;24.20;48.10
32139;DHT22;18644;48.700;9.210;2023-08-08T09:27:08;24.20;47.80
32139;DHT22;18644;48.700;9.210;2023-08-08T09:29:36;24.20;47.70
32139;DHT22;18644;48.700;9.210;2023-08-08T09:32:04;24.30;47.40
32139;DHT22;18644;48.700;9.210;2023-08-08T09:34:32;24.30;47.10
32139;DHT22;18644;48.700;9.210;2023-08-08T09:37:00;24.30;46.90
32139;DHT22;18644;48.700;9.210;2023-08-08T09:39:28;24.30;46.80
32139;DHT22;18644;48.700;9.210;2023-08-08T09:41:56;24.30;46.60
32139;DHT22;18644;48.700;9.210;2023-08-08T09:44:25;24.30;46.60
32139;DHT22;18644;48.700;9.210;2023-08-08T09:46:55;24.30;46.30
32139;DHT22;18644;48.700;9.210;2023-08-08T09:49:22;24.40;46.50
32139;DHT22;18644;48.700;9.210;2023-08-08T09:51:50;24.40;46.60
32139;DHT22;18644;48.700;9.210;2023-08-08T09:54:17;24.50;46.50
32139;DHT22;18644;48.700;9.210;2023-08-08T09:56:44;24.50;46.30
32139;DHT22;18644;48.700;9.210;2023-08-08T09:59:12;24.60;46.60
32139;DHT22;18644;48.700;9.210;2023-08-08T10:01:41;24.70;46.40
32139;DHT22;18644;48.700;9.210;2023-08-08T10:04:11;24.80;46.50
32139;DHT22;18644;48.700;9.210;2023-08-08T10:06:38;24.80;45.70
32139;DHT22;18644;48.700;9.210;2023-08-08T10:09:05;24.90;45.40
32139;DHT22;18644;48.700;9.210;2023-08-08T10:11:33;24.90;45.20
32139;DHT22;18644;48.700;9.210;2023-08-08T10:14:02;25.00;45.00
32139;DHT22;18644;48.700;9.210;2023-08-08T10:16:32;25.00;45.10
32139;DHT22;18644;48.700;9.210;2023-08-08T10:19:03;25.00;45.60
32139;DHT22;18644;48.700;9.210;2023-08-08T10:21:33;25.10;45.40
32139;DHT22;18644;48.700;9.210;2023-08-08T10:24:04;25.20;45.70
32139;DHT22;18644;48.700;9.210;2023-08-08T10:26:33;25.40;45.90
32139;DHT22;18644;48.700;9.210;2023-08-08T10:29:01;25.50;45.60
32139;DHT22;18644;48.700;9.210;2023-08-08T10:31:33;25.60;45.40
32139;DHT22;18644;48.700;9.210;2023-08-08T10:34:04;25.80;45.10
32139;DHT22;18644;48.700;9.210;2023-08-08T10:36:48;25.80;45.20
32139;DHT22;18644;48.700;9.210;2023-08-08T10:39:16;26.00;45.00
32139;DHT22;18644;48.700;9.210;2023-08-08T10:41:48;26.10;44.60
32139;DHT22;18644;48.700;9.210;2023-08-08T10:44:23;26.20;44.60
32139;DHT22;18644;48.700;9.210;2023-08-08T10:46:51;26.30;44.00
32139;DHT22;18644;48.700;9.210;2023-08-08T10:49:20;26.40;44.00
32139;DHT22;18644;48.700;9.210;2023-08-08T10:51:49;26.50;43.60
32139;DHT22;18644;48.700;9.210;2023-08-08T10:54:19;26.50;43.00
32139;DHT22;18644;48.700;9.210;2023-08-08T10:56:49;26.60;42.60
32139;DHT22;18644;48.700;9.210;2023-08-08T10:59:19;26.60;42.20
32139;DHT22;18644;48.700;9.210;2023-08-08T11:01:48;26.60;42.00
32139;DHT22;18644;48.700;9.210;2023-08-08T11:04:17;26.60;41.80
32139;DHT22;18644;48.700;9.210;2023-08-08T11:06:46;26.60;41.00
32139;DHT22;18644;48.700;9.210;2023-08-08T11:09:15;26.60;40.80
32139;DHT22;18644;48.700;9.210;2023-08-08T11:11:44;26.50;41.30
32139;DHT22;18644;48.700;9.210;2023-08-08T11:14:13;26.50;40.80
32139;DHT22;18644;48.700;9.210;2023-08-08T11:16:42;26.50;40.70
32139;DHT22;18644;48.700;9.210;2023-08-08T11:19:10;26.40;40.90
32139;DHT22;18644;48.700;9.210;2023-08-08T11:21:43;26.50;41.10
32139;DHT22;18644;48.700;9.210;2023-08-08T11:24:13;26.60;41.20
32139;DHT22;18644;48.700;9.210;2023-08-08T11:26:41;26.70;40.90
32139;DHT22;18644;48.700;9.210;2023-08-08T11:29:10;26.80;40.60
32139;DHT22;18644;48.700;9.210;2023-08-08T11:31:37;26.90;40.00
32139;DHT22;18644;48.700;9.210;2023-08-08T11:34:05;27.00;39.50
32139;DHT22;18644;48.700;9.210;2023-08-08T11:36:33;27.10;39.50
32139;DHT22;18644;48.700;9.210;2023-08-08T11:39:02;27.20;39.20
32139;DHT22;18644;48.700;9.210;2023-08-08T11:41:34;27.20;38.40
32139;DHT22;18644;48.700;9.210;2023-08-08T11:44:03;27.10;37.90
32139;DHT22;18644;48.700;9.210;2023-08-08T11:46:30;27.10;38.20
32139;DHT22;18644;48.700;9.210;2023-08-08T11:49:03;27.10;38.10
32139;DHT22;18644;48.700;9.210;2023-08-08T11:51:32;27.10;37.90
32139;DHT22;18644;48.700;9.210;2023-08-08T11:54:01;27.10;37.80
32139;DHT22;18644;48.700;9.210;2023-08-08T11:56:34;27.10;37.80
32139;DHT22;18644;48.700;9.210;2023-08-08T11:59:01;27.20;38.00
32139;DHT22;18644;48.700;9.210;2023-08-08T12:01:30;27.20;38.70
32139;DHT22;18644;48.700;9.210;2023-08-08T12:03:58;27.30;38.40
32139;DHT22;18644;48.700;9.210;2023-08-08T12:06:28;27.30;37.80
32139;DHT22;18644;48.700;9.210;2023-08-08T12:08:55;27.30;37.20
32139;DHT22;18644;48.700;9.210;2023-08-08T12:11:22;27.30;37.10
32139;DHT22;18644;48.700;9.210;2023-08-08T12:13:50;27.20;37.00
32139;DHT22;18644;48.700;9.210;2023-08-08T12:16:17;27.20;37.00
32139;DHT22;18644;48.700;9.210;2023-08-08T12:18:45;27.20;37.80
32139;DHT22;18644;48.700;9.210;2023-08-08T12:21:12;27.20;38.30
32139;DHT22;18644;48.700;9.210;2023-08-08T12:23:39;27.30;38.50
32139;DHT22;18644;48.700;9.210;2023-08-08T12:26:06;27.30;38.00
32139;DHT22;18644;48.700;9.210;2023-08-08T12:28:33;27.40;37.40
32139;DHT22;18644;48.700;9.210;2023-08-08T12:31:02;27.50;36.80
32139;DHT22;18644;48.700;9.210;2023-08-08T12:33:29;27.50;36.50
32139;DHT22;18644;48.700;9.210;2023-08-08T12:35:56;27.50;36.50
32139;DHT22;18644;48.700;9.210;2023-08-08T12:38:23;27.50;36.10
32139;DHT22;18644;48.700;9.210;2023-08-08T12:40:50;27.40;36.10
32139;DHT22;18644;48.700;9.210;2023-08-08T12:43:17;27.40;36.30
32139;DHT22;18644;48.700;9.210;2023-08-08T12:45:44;27.50;36.30
32139;DHT22;18644;48.700;9.210;2023-08-08T12:48:12;27.50;36.00
32139;DHT22;18644;48.700;9.210;2023-08-08T12:50:39;27.60;35.70
32139;DHT22;18644;48.700;9.210;2023-08-08T12:53:06;27.50;35.70
32139;DHT22;18644;48.700;9.210;2023-08-08T12:55:33;27.50;35.50
32139;DHT22;18644;48.700;9.210;2023-08-08T12:58:01;27.50;36.30
32139;DHT22;18644;48.700;9.210;2023-08-08T13:00:28;27.50;35.80
32139;DHT22;18644;48.700;9.210;2023-08-08T13:02:55;27.50;35.90
32139;DHT22;18644;48.700;9.210;2023-08-08T13:05:23;27.50;36.20
32139;DHT22;18644;48.700;9.210;2023-08-08T13:07:50;27.60;36.10
32139;DHT22;18644;48.700;9.210;2023-08-08T13:10:17;27.80;36.10
32139;DHT22;18644;48.700;9.210;2023-08-08T13:12:45;27.90;35.80
32139;DHT22;18644;48.700;9.210;2023-08-08T13:15:12;27.90;35.40
32139;DHT22;18644;48.700;9.210;2023-08-08T13:17:39;27.80;34.60
32139;DHT22;18644;48.700;9.210;2023-08-08T13:20:07;27.80;34.40
32139;DHT22;18644;48.700;9.210;2023-08-08T13:22:36;27.60;34.10
32139;DHT22;18644;48.700;9.210;2023-08-08T13:25:04;27.40;34.10
32139;DHT22;18644;48.700;9.210;2023-08-08T13:27:31;27.20;34.00
32139;DHT22;18644;48.700;9.210;2023-08-08T13:29:58;27.10;34.20
32139;DHT22;18644;48.700;9.210;2023-08-08T13:32:25;26.90;34.30
32139;DHT22;18644;48.700;9.210;2023-08-08T13:34:52;26.70;34.50
32139;DHT22;18644;48.700;9.210;2023-08-08T13:37:19;26.50;34.80
32139;DHT22;18644;48.700;9.210;2023-08-08T13:39:47;26.40;35.40
32139;DHT22;18644;48.700;9.210;2023-08-08T13:42:14;26.40;36.20
32139;DHT22;18644;48.700;9.210;2023-08-08T13:44:41;26.40;36.60
32139;DHT22;18644;48.700;9.210;2023-08-08T13:47:08;26.50;36.30
32139;DHT22;18644;48.700;9.210;2023-08-08T13:49:35;26.50;36.10
32139;DHT22;18644;48.700;9.210;2023-08-08T13:52:02;26.50;36.10
32139;DHT22;18644;48.700;9.210;2023-08-08T13:54:29;26.60;35.80
32139;DHT22;18644;48.700;9.210;2023-08-08T13:56:57;26.50;35.60
32139;DHT22;18644;48.700;9.210;2023-08-08T13:59:24;26.50;36.30
32139;DHT22;18644;48.700;9.210;2023-08-08T14:01:52;26.40;35.80
32139;DHT22;18644;48.700;9.210;2023-08-08T14:04:19;26.30;36.20
32139;DHT22;18644;48.700;9.210;2023-08-08T14:06:45;26.30;36.80
32139;DHT22;18644;48.700;9.210;2023-08-08T14:09:12;26.40;37.30
32139;DHT22;18644;48.700;9.210;2023-08-08T14:11:39;26.40;37.20
32139;DHT22;18644;48.700;9.210;2023-08-08T14:14:07;26.50;37.00
32139;DHT22;18644;48.700;9.210;2023-08-08T14:16:34;26.50;36.70
32139;DHT22;18644;48.700;9.210;2023-08-08T14:19:01;26.60;36.50
32139;DHT22;18644;48.700;9.210;2023-08-08T14:21:29;26.60;36.40
32139;DHT22;18644;48.700;9.210;2023-08-08T14:23:55;26.60;36.60
32139;DHT22;18644;48.700;9.210;2023-08-08T14:26:22;26.60;36.40
32139;DHT22;18644;48.700;9.210;2023-08-08T14:28:49;26.60;36.50
32139;DHT22;18644;48.700;9.210;2023-08-08T14:31:18;26.60;36.30
32139;DHT22;18644;48.700;9.210;2023-08-08T14:33:45;26.60;36.00
32139;DHT22;18644;48.700;9.210;2023-08-08T14:36:12;26.60;36.00
32139;DHT22;18644;48.700;9.210;2023-08-08T14:38:39;26.60;35.90
32139;DHT22;18644;48.700;9.210;2023-08-08T14:41:06;26.50;36.00
32139;DHT22;18644;48.700;9.210;2023-08-08T14:43:33;26.50;36.00
32139;DHT22;18644;48.700;9.210;2023-08-08T14:45:59;26.40;36.00
32139;DHT22;18644;48.700;9.210;2023-08-08T14:48:28;26.30;36.10
32139;DHT22;18644;48.700;9.210;2023-08-08T14:50:55;26.30;35.90
32139;DHT22;18644;48.700;9.210;2023-08-08T14:53:22;26.20;35.70
32139;DHT22;18644;48.700;9.210;2023-08-08T14:55:48;26.10;36.20
32139;DHT22;18644;48.700;9.210;2023-08-08T14:58:15;26.10;35.90
32139;DHT22;18644;48.700;9.210;2023-08-08T15:00:42;26.00;36.00
32139;DHT22;18644;48.700;9.210;2023-08-08T15:03:09;26.00;36.20
32139;DHT22;18644;48.700;9.210;2023-08-08T15:05:37;26.00;36.50
32139;DHT22;18644;48.700;9.210;2023-08-08T15:08:05;25.90;36.70
32139;DHT22;18644;48.700;9.210;2023-08-08T15:10:32;25.90;36.80
32139;DHT22;18644;48.700;9.210;2023-08-08T15:12:59;25.90;36.60
32139;DHT22;18644;48.700;9.210;2023-08-08T15:15:26;25.80;36.40
32139;DHT22;18644;48.700;9.210;2023-08-08T15:17:55;25.80;36.50
32139;DHT22;18644;48.700;9.210;2023-08-08T15:20:22;25.70;36.40
32139;DHT22;18644;48.700;9.210;2023-08-08T15:22:50;25.70;36.20
32139;DHT22;18644;48.700;9.210;2023-08-08T15:25:17;25.60;36.00
32139;DHT22;18644;48.700;9.210;2023-08-08T15:27:44;25.50;36.00
32139;DHT22;18644;48.700;9.210;2023-08-08T15:30:11;25.50;36.20
32139;DHT22;18644;48.700;9.210;2023-08-08T15:32:38;25.50;36.80